sensor_id;sensor_type;location;lat;lon;timestamp;pressure;altitude;pressure_sealevel;temperature
17142;BMP180;32805;53.556;9.944;2022-07-25T00:00:08;101032.00;;;22.20
17142;BMP180;32805;53.556;9.944;2022-07-25T00:02:37;101034.00;;;22.20
17142;BMP180;32805;53.556;9.944;2022-07-25T00:05:05;101032.00;;;22.00
17142;BMP180;32805;53.556;9.944;2022-07-25T00:07:33;101024.00;;;22.00
17142;BMP180;32805;53.556;9.944;2022-07-25T00:10:01;101021.00;;;22.00
17142;BMP180;32805;53.556;9.944;2022-07-25T00:12:29;101026.00;;;21.90
17142;BMP180;32805;53.556;9.944;2022-07-25T00:14:57;101019.00;;;21.80
17142;BMP180;32805;53.556;9.944;2022-07-25T00:17:26;101021.00;;;21.80
17142;BMP180;32805;53.556;9.944;2022-07-25T00:19:54;101022.00;;;21.70
17142;BMP180;32805;53.556;9.944;2022-07-25T00:22:22;101018.00;;;21.70
17142;BMP180;32805;53.556;9.944;2022-07-25T00:24:50;101014.00;;;21.60
17142;BMP180;32805;53.556;9.944;2022-07-25T00:27:18;101000.00;;;21.60
17142;BMP180;32805;53.556;9.944;2022-07-25T00:29:46;101019.00;;;21.50
17142;BMP180;32805;53.556;9.944;2022-07-25T00:32:14;101009.00;;;21.50
17142;BMP180;32805;53.556;9.944;2022-07-25T00:34:43;101013.00;;;21.40
17142;BMP180;32805;53.556;9.944;2022-07-25T00:37:11;101005.00;;;21.40
17142;BMP180;32805;53.556;9.944;2022-07-25T00:39:38;101009.00;;;21.40
17142;BMP180;32805;53.556;9.944;2022-07-25T00:42:06;101011.00;;;21.30
17142;BMP180;32805;53.556;9.944;2022-07-25T00:44:34;101009.00;;;21.20
17142;BMP180;32805;53.556;9.944;2022-07-25T00:47:02;101015.00;;;21.20
17142;BMP180;32805;53.556;9.944;2022-07-25T00:49:30;101004.00;;;21.20
17142;BMP180;32805;53.556;9.944;2022-07-25T00:51:59;101005.00;;;21.20
17142;BMP180;32805;53.556;9.944;2022-07-25T00:54:28;100998.00;;;21.10
17142;BMP180;32805;53.556;9.944;2022-07-25T00:56:56;100998.00;;;21.10
17142;BMP180;32805;53.556;9.944;2022-07-25T00:59:23;101002.00;;;21.10
17142;BMP180;32805;53.556;9.944;2022-07-25T01:01:51;100988.00;;;21.10
17142;BMP180;32805;53.556;9.944;2022-07-25T01:04:19;100991.00;;;21.00
17142;BMP180;32805;53.556;9.944;2022-07-25T01:06:47;100976.00;;;21.00
17142;BMP180;32805;53.556;9.944;2022-07-25T01:09:17;100986.00;;;21.00
17142;BMP180;32805;53.556;9.944;2022-07-25T01:11:46;100974.00;;;20.90
17142;BMP180;32805;53.556;9.944;2022-07-25T01:14:13;100981.00;;;20.90
17142;BMP180;32805;53.556;9.944;2022-07-25T01:16:41;100979.00;;;20.90
17142;BMP180;32805;53.556;9.944;2022-07-25T01:19:09;100987.00;;;20.90
17142;BMP180;32805;53.556;9.944;2022-07-25T01:21:39;100980.00;;;20.90
17142;BMP180;32805;53.556;9.944;2022-07-25T01:24:08;100976.00;;;20.90
17142;BMP180;32805;53.556;9.944;2022-07-25T01:26:36;100978.00;;;21.00
17142;BMP180;32805;53.556;9.944;2022-07-25T01:29:04;100983.00;;;21.00
17142;BMP180;32805;53.556;9.944;2022-07-25T01:31:32;100973.00;;;20.90
17142;BMP180;32805;53.556;9.944;2022-07-25T01:34:00;100968.00;;;20.80
17142;BMP180;32805;53.556;9.944;2022-07-25T01:36:28;100969.00;;;20.80
17142;BMP180;32805;53.556;9.944;2022-07-25T01:38:57;100965.00;;;20.80
17142;BMP180;32805;53.556;9.944;2022-07-25T01:41:25;100966.00;;;20.80
17142;BMP180;32805;53.556;9.944;2022-07-25T01:43:53;100959.00;;;20.80
17142;BMP180;32805;53.556;9.944;2022-07-25T01:46:20;100955.00;;;20.80
17142;BMP180;32805;53.556;9.944;2022-07-25T01:48:48;100953.00;;;20.80
17142;BMP180;32805;53.556;9.944;2022-07-25T01:51:16;100952.00;;;20.70
17142;BMP180;32805;53.556;9.944;2022-07-25T01:53:46;100954.00;;;20.70
17142;BMP180;32805;53.556;9.944;2022-07-25T01:56:15;100958.00;;;20.70
17142;BMP180;32805;53.556;9.944;2022-07-25T01:58:46;100949.00;;;20.70
17142;BMP180;32805;53.556;9.944;2022-07-25T02:01:13;100944.00;;;20.70
17142;BMP180;32805;53.556;9.944;2022-07-25T02:03:41;100938.00;;;20.60
17142;BMP180;32805;53.556;9.944;2022-07-25T02:06:09;100943.00;;;20.60
17142;BMP180;32805;53.556;9.944;2022-07-25T02:08:37;100935.00;;;20.50
17142;BMP180;32805;53.556;9.944;2022-07-25T02:11:05;100935.00;;;20.60
17142;BMP180;32805;53.556;9.944;2022-07-25T02:13:34;100914.00;;;20.60
17142;BMP180;32805;53.556;9.944;2022-07-25T02:16:03;100919.00;;;20.50
17142;BMP180;32805;53.556;9.944;2022-07-25T02:18:31;100919.00;;;20.50
17142;BMP180;32805;53.556;9.944;2022-07-25T02:20:58;100921.00;;;20.50
17142;BMP180;32805;53.556;9.944;2022-07-25T02:23:26;100916.00;;;20.40
17142;BMP180;32805;53.556;9.944;2022-07-25T02:25:54;100907.00;;;20.40
17142;BMP180;32805;53.556;9.944;2022-07-25T02:28:22;100884.00;;;20.30
17142;BMP180;32805;53.556;9.944;2022-07-25T02:30:51;100896.00;;;20.40
17142;BMP180;32805;53.556;9.944;2022-07-25T02:33:19;100900.00;;;20.40
17142;BMP180;32805;53.556;9.944;2022-07-25T02:35:46;100900.00;;;20.40
17142;BMP180;32805;53.556;9.944;2022-07-25T02:38:14;100895.00;;;20.40
17142;BMP180;32805;53.556;9.944;2022-07-25T02:40:45;100896.00;;;20.40
17142;BMP180;32805;53.556;9.944;2022-07-25T02:43:13;100890.00;;;20.40
17142;BMP180;32805;53.556;9.944;2022-07-25T02:45:41;100880.00;;;20.40
17142;BMP180;32805;53.556;9.944;2022-07-25T02:48:10;100888.00;;;20.40
17142;BMP180;32805;53.556;9.944;2022-07-25T02:50:38;100888.00;;;20.40
17142;BMP180;32805;53.556;9.944;2022-07-25T02:53:06;100875.00;;;20.40
17142;BMP180;32805;53.556;9.944;2022-07-25T02:55:34;100876.00;;;20.40
17142;BMP180;32805;53.556;9.944;2022-07-25T02:58:01;100876.00;;;20.40
17142;BMP180;32805;53.556;9.944;2022-07-25T03:00:29;100878.00;;;20.50
17142;BMP180;32805;53.556;9.944;2022-07-25T03:02:57;100875.00;;;20.40
17142;BMP180;32805;53.556;9.944;2022-07-25T03:05:26;100869.00;;;20.40
17142;BMP180;32805;53.556;9.944;2022-07-25T03:07:54;100869.00;;;20.40
17142;BMP180;32805;53.556;9.944;2022-07-25T03:10:22;100863.00;;;20.40
17142;BMP180;32805;53.556;9.944;2022-07-25T03:12:50;100863.00;;;20.40
17142;BMP180;32805;53.556;9.944;2022-07-25T03:15:18;100860.00;;;20.40
17142;BMP180;32805;53.556;9.944;2022-07-25T03:17:45;100850.00;;;20.40
17142;BMP180;32805;53.556;9.944;2022-07-25T03:20:13;100849.00;;;20.40
17142;BMP180;32805;53.556;9.944;2022-07-25T03:22:42;100848.00;;;20.40
17142;BMP180;32805;53.556;9.944;2022-07-25T03:25:10;100847.00;;;20.30
17142;BMP180;32805;53.556;9.944;2022-07-25T03:27:47;100832.00;;;20.30
17142;BMP180;32805;53.556;9.944;2022-07-25T03:30:15;100836.00;;;20.30
17142;BMP180;32805;53.556;9.944;2022-07-25T03:32:43;100834.00;;;20.30
17142;BMP180;32805;53.556;9.944;2022-07-25T03:35:11;100825.00;;;20.30
17142;BMP180;32805;53.556;9.944;2022-07-25T03:37:38;100830.00;;;20.30
17142;BMP180;32805;53.556;9.944;2022-07-25T03:40:09;100828.00;;;20.40
17142;BMP180;32805;53.556;9.944;2022-07-25T03:42:38;100821.00;;;20.30
17142;BMP180;32805;53.556;9.944;2022-07-25T03:45:07;100827.00;;;20.30
17142;BMP180;32805;53.556;9.944;2022-07-25T03:47:35;100820.00;;;20.40
17142;BMP180;32805;53.556;9.944;2022-07-25T03:50:03;100805.00;;;20.30
17142;BMP180;32805;53.556;9.944;2022-07-25T03:52:31;100807.00;;;20.30
17142;BMP180;32805;53.556;9.944;2022-07-25T03:54:58;100809.00;;;20.30
17142;BMP180;32805;53.556;9.944;2022-07-25T03:57:27;100804.00;;;20.30
17142;BMP180;32805;53.556;9.944;2022-07-25T03:59:55;100797.00;;;20.20
17142;BMP180;32805;53.556;9.944;2022-07-25T04:02:23;100795.00;;;20.30
17142;BMP180;32805;53.556;9.944;2022-07-25T04:04:50;100796.00;;;20.20
17142;BMP180;32805;53.556;9.944;2022-07-25T04:07:18;100797.00;;;20.30
17142;BMP180;32805;53.556;9.944;2022-07-25T04:09:46;100796.00;;;20.40
17142;BMP180;32805;53.556;9.944;2022-07-25T04:12:13;100793.00;;;20.30
17142;BMP180;32805;53.556;9.944;2022-07-25T04:14:42;100783.00;;;20.30
17142;BMP180;32805;53.556;9.944;2022-07-25T04:17:10;100775.00;;;20.30
17142;BMP180;32805;53.556;9.944;2022-07-25T04:19:38;100775.00;;;20.30
17142;BMP180;32805;53.556;9.944;2022-07-25T04:22:06;100770.00;;;20.40
17142;BMP180;32805;53.556;9.944;2022-07-25T04:24:33;100767.00;;;20.40
17142;BMP180;32805;53.556;9.944;2022-07-25T04:27:01;100767.00;;;20.40
17142;BMP180;32805;53.556;9.944;2022-07-25T04:29:29;100757.00;;;20.50
17142;BMP180;32805;53.556;9.944;2022-07-25T04:31:58;100753.00;;;20.50
17142;BMP180;32805;53.556;9.944;2022-07-25T04:34:26;100753.00;;;20.60
17142;BMP180;32805;53.556;9.944;2022-07-25T04:36:53;100748.00;;;20.60
17142;BMP180;32805;53.556;9.944;2022-07-25T04:39:21;100740.00;;;20.50
17142;BMP180;32805;53.556;9.944;2022-07-25T04:41:49;100739.00;;;20.60
17142;BMP180;32805;53.556;9.944;2022-07-25T04:44:17;100736.00;;;20.60
17142;BMP180;32805;53.556;9.944;2022-07-25T04:46:44;100742.00;;;20.60
17142;BMP180;32805;53.556;9.944;2022-07-25T04:49:13;100729.00;;;20.60
17142;BMP180;32805;53.556;9.944;2022-07-25T04:51:41;100723.00;;;20.60
17142;BMP180;32805;53.556;9.944;2022-07-25T04:54:09;100722.00;;;20.60
17142;BMP180;32805;53.556;9.944;2022-07-25T04:56:37;100723.00;;;20.60
17142;BMP180;32805;53.556;9.944;2022-07-25T04:59:04;100721.00;;;20.60
17142;BMP180;32805;53.556;9.944;2022-07-25T05:01:33;100714.00;;;20.70
17142;BMP180;32805;53.556;9.944;2022-07-25T05:04:01;100711.00;;;20.70
17142;BMP180;32805;53.556;9.944;2022-07-25T05:06:30;100700.00;;;20.70
17142;BMP180;32805;53.556;9.944;2022-07-25T05:08:58;100711.00;;;20.80
17142;BMP180;32805;53.556;9.944;2022-07-25T05:11:26;100711.00;;;20.80
17142;BMP180;32805;53.556;9.944;2022-07-25T05:13:54;100705.00;;;20.90
17142;BMP180;32805;53.556;9.944;2022-07-25T05:16:21;100701.00;;;20.90
17142;BMP180;32805;53.556;9.944;2022-07-25T05:18:49;100691.00;;;20.90
17142;BMP180;32805;53.556;9.944;2022-07-25T05:21:17;100692.00;;;21.00
17142;BMP180;32805;53.556;9.944;2022-07-25T05:23:46;100678.00;;;21.00
17142;BMP180;32805;53.556;9.944;2022-07-25T05:26:14;100691.00;;;21.00
17142;BMP180;32805;53.556;9.944;2022-07-25T05:28:41;100688.00;;;21.10
17142;BMP180;32805;53.556;9.944;2022-07-25T05:31:09;100681.00;;;21.10
17142;BMP180;32805;53.556;9.944;2022-07-25T05:33:37;100677.00;;;21.10
17142;BMP180;32805;53.556;9.944;2022-07-25T05:36:05;100677.00;;;21.10
17142;BMP180;32805;53.556;9.944;2022-07-25T05:38:34;100675.00;;;21.20
17142;BMP180;32805;53.556;9.944;2022-07-25T05:41:04;100674.00;;;21.20
17142;BMP180;32805;53.556;9.944;2022-07-25T05:43:31;100664.00;;;21.30
17142;BMP180;32805;53.556;9.944;2022-07-25T05:46:00;100659.00;;;21.30
17142;BMP180;32805;53.556;9.944;2022-07-25T05:48:28;100655.00;;;21.40
17142;BMP180;32805;53.556;9.944;2022-07-25T05:50:57;100665.00;;;21.50
17142;BMP180;32805;53.556;9.944;2022-07-25T05:53:25;100660.00;;;21.60
17142;BMP180;32805;53.556;9.944;2022-07-25T05:55:53;100658.00;;;21.60
17142;BMP180;32805;53.556;9.944;2022-07-25T05:58:23;100654.00;;;21.70
17142;BMP180;32805;53.556;9.944;2022-07-25T06:00:56;100653.00;;;21.80
17142;BMP180;32805;53.556;9.944;2022-07-25T06:03:24;100647.00;;;21.80
17142;BMP180;32805;53.556;9.944;2022-07-25T06:05:54;100650.00;;;21.90
17142;BMP180;32805;53.556;9.944;2022-07-25T06:08:21;100634.00;;;22.00
17142;BMP180;32805;53.556;9.944;2022-07-25T06:10:50;100641.00;;;22.10
17142;BMP180;32805;53.556;9.944;2022-07-25T06:13:18;100628.00;;;22.20
17142;BMP180;32805;53.556;9.944;2022-07-25T06:15:49;100628.00;;;22.30
17142;BMP180;32805;53.556;9.944;2022-07-25T06:18:17;100628.00;;;22.40
17142;BMP180;32805;53.556;9.944;2022-07-25T06:20:45;100614.00;;;22.40
17142;BMP180;32805;53.556;9.944;2022-07-25T06:23:14;100609.00;;;22.50
17142;BMP180;32805;53.556;9.944;2022-07-25T06:25:41;100627.00;;;22.60
17142;BMP180;32805;53.556;9.944;2022-07-25T06:28:15;100624.00;;;22.70
17142;BMP180;32805;53.556;9.944;2022-07-25T06:30:44;100624.00;;;22.70
17142;BMP180;32805;53.556;9.944;2022-07-25T06:33:13;100612.00;;;22.80
17142;BMP180;32805;53.556;9.944;2022-07-25T06:35:41;100606.00;;;22.90
17142;BMP180;32805;53.556;9.944;2022-07-25T06:38:13;100615.00;;;23.00
17142;BMP180;32805;53.556;9.944;2022-07-25T06:40:41;100619.00;;;23.00
17142;BMP180;32805;53.556;9.944;2022-07-25T06:43:09;100614.00;;;23.10
17142;BMP180;32805;53.556;9.944;2022-07-25T06:45:36;100605.00;;;23.20
17142;BMP180;32805;53.556;9.944;2022-07-25T06:48:04;100607.00;;;23.30
17142;BMP180;32805;53.556;9.944;2022-07-25T06:50:33;100611.00;;;23.40
17142;BMP180;32805;53.556;9.944;2022-07-25T06:53:01;100609.00;;;23.50
17142;BMP180;32805;53.556;9.944;2022-07-25T06:55:29;100604.00;;;23.60
17142;BMP180;32805;53.556;9.944;2022-07-25T06:57:57;100591.00;;;23.70
17142;BMP180;32805;53.556;9.944;2022-07-25T07:00:25;100605.00;;;23.70
17142;BMP180;32805;53.556;9.944;2022-07-25T07:02:54;100603.00;;;23.70
17142;BMP180;32805;53.556;9.944;2022-07-25T07:05:25;100601.00;;;23.80
17142;BMP180;32805;53.556;9.944;2022-07-25T07:07:54;100598.00;;;23.70
17142;BMP180;32805;53.556;9.944;2022-07-25T07:10:23;100583.00;;;23.80
17142;BMP180;32805;53.556;9.944;2022-07-25T07:13:01;100588.00;;;23.80
17142;BMP180;32805;53.556;9.944;2022-07-25T07:15:31;100588.00;;;23.90
17142;BMP180;32805;53.556;9.944;2022-07-25T07:17:58;100583.00;;;24.00
17142;BMP180;32805;53.556;9.944;2022-07-25T07:20:26;100579.00;;;24.20
17142;BMP180;32805;53.556;9.944;2022-07-25T07:22:56;100581.00;;;24.20
17142;BMP180;32805;53.556;9.944;2022-07-25T07:25:24;100572.00;;;24.30
17142;BMP180;32805;53.556;9.944;2022-07-25T07:27:54;100574.00;;;24.40
17142;BMP180;32805;53.556;9.944;2022-07-25T07:30:21;100562.00;;;24.60
17142;BMP180;32805;53.556;9.944;2022-07-25T07:33:09;100561.00;;;24.70
17142;BMP180;32805;53.556;9.944;2022-07-25T07:35:37;100567.00;;;24.80
17142;BMP180;32805;53.556;9.944;2022-07-25T07:38:07;100553.00;;;24.80
17142;BMP180;32805;53.556;9.944;2022-07-25T07:40:34;100553.00;;;24.80
17142;BMP180;32805;53.556;9.944;2022-07-25T07:43:02;100556.00;;;24.80
17142;BMP180;32805;53.556;9.944;2022-07-25T07:45:30;100550.00;;;24.90
17142;BMP180;32805;53.556;9.944;2022-07-25T07:47:57;100540.00;;;25.00
17142;BMP180;32805;53.556;9.944;2022-07-25T07:50:26;100546.00;;;25.00
17142;BMP180;32805;53.556;9.944;2022-07-25T07:52:55;100532.00;;;25.00
17142;BMP180;32805;53.556;9.944;2022-07-25T07:55:25;100538.00;;;25.00
17142;BMP180;32805;53.556;9.944;2022-07-25T07:58:12;100545.00;;;25.10
17142;BMP180;32805;53.556;9.944;2022-07-25T08:00:42;100530.00;;;25.20
17142;BMP180;32805;53.556;9.944;2022-07-25T08:03:11;100528.00;;;25.20
17142;BMP180;32805;53.556;9.944;2022-07-25T08:05:41;100524.00;;;25.30
17142;BMP180;32805;53.556;9.944;2022-07-25T08:08:10;100512.00;;;25.50
17142;BMP180;32805;53.556;9.944;2022-07-25T08:10:42;100524.00;;;25.70
17142;BMP180;32805;53.556;9.944;2022-07-25T08:13:11;100513.00;;;25.80
17142;BMP180;32805;53.556;9.944;2022-07-25T08:15:40;100512.00;;;25.90
17142;BMP180;32805;53.556;9.944;2022-07-25T08:18:08;100512.00;;;25.90
17142;BMP180;32805;53.556;9.944;2022-07-25T08:20:43;100496.00;;;26.00
17142;BMP180;32805;53.556;9.944;2022-07-25T08:23:11;100503.00;;;26.00
17142;BMP180;32805;53.556;9.944;2022-07-25T08:25:41;100501.00;;;26.00
17142;BMP180;32805;53.556;9.944;2022-07-25T08:28:09;100503.00;;;26.20
17142;BMP180;32805;53.556;9.944;2022-07-25T08:30:38;100501.00;;;26.30
17142;BMP180;32805;53.556;9.944;2022-07-25T08:33:08;100495.00;;;26.50
17142;BMP180;32805;53.556;9.944;2022-07-25T08:35:38;100493.00;;;26.80
17142;BMP180;32805;53.556;9.944;2022-07-25T08:38:07;100494.00;;;27.00
17142;BMP180;32805;53.556;9.944;2022-07-25T08:40:36;100482.00;;;27.30
17142;BMP180;32805;53.556;9.944;2022-07-25T08:43:09;100481.00;;;27.40
17142;BMP180;32805;53.556;9.944;2022-07-25T08:45:42;100479.00;;;27.60
17142;BMP180;32805;53.556;9.944;2022-07-25T08:48:11;100476.00;;;27.80
17142;BMP180;32805;53.556;9.944;2022-07-25T08:50:39;100476.00;;;28.10
17142;BMP180;32805;53.556;9.944;2022-07-25T08:53:07;100469.00;;;28.20
17142;BMP180;32805;53.556;9.944;2022-07-25T08:55:54;100459.00;;;28.30
17142;BMP180;32805;53.556;9.944;2022-07-25T08:58:23;100458.00;;;28.50
17142;BMP180;32805;53.556;9.944;2022-07-25T09:00:51;100467.00;;;28.60
17142;BMP180;32805;53.556;9.944;2022-07-25T09:03:19;100457.00;;;28.70
17142;BMP180;32805;53.556;9.944;2022-07-25T09:05:46;100454.00;;;28.50
17142;BMP180;32805;53.556;9.944;2022-07-25T09:08:15;100451.00;;;28.60
17142;BMP180;32805;53.556;9.944;2022-07-25T09:10:45;100451.00;;;28.60
17142;BMP180;32805;53.556;9.944;2022-07-25T09:13:18;100447.00;;;28.40
17142;BMP180;32805;53.556;9.944;2022-07-25T09:15:51;100456.00;;;28.30
17142;BMP180;32805;53.556;9.944;2022-07-25T09:18:23;100423.00;;;28.30
17142;BMP180;32805;53.556;9.944;2022-07-25T09:20:53;100450.00;;;28.40
17142;BMP180;32805;53.556;9.944;2022-07-25T09:23:29;100445.00;;;28.50
17142;BMP180;32805;53.556;9.944;2022-07-25T09:26:01;100432.00;;;28.60
17142;BMP180;32805;53.556;9.944;2022-07-25T09:28:30;100437.00;;;28.70
17142;BMP180;32805;53.556;9.944;2022-07-25T09:31:00;100428.00;;;28.90
17142;BMP180;32805;53.556;9.944;2022-07-25T09:33:28;100414.00;;;29.10
17142;BMP180;32805;53.556;9.944;2022-07-25T09:35:56;100447.00;;;28.90
17142;BMP180;32805;53.556;9.944;2022-07-25T09:38:24;100417.00;;;29.10
17142;BMP180;32805;53.556;9.944;2022-07-25T09:40:54;100439.00;;;29.00
17142;BMP180;32805;53.556;9.944;2022-07-25T09:43:23;100435.00;;;29.00
17142;BMP180;32805;53.556;9.944;2022-07-25T09:46:03;100418.00;;;29.10
17142;BMP180;32805;53.556;9.944;2022-07-25T09:48:31;100436.00;;;29.20
17142;BMP180;32805;53.556;9.944;2022-07-25T09:50:59;100424.00;;;29.40
17142;BMP180;32805;53.556;9.944;2022-07-25T09:53:27;100435.00;;;29.60
17142;BMP180;32805;53.556;9.944;2022-07-25T09:55:56;100427.00;;;29.50
17142;BMP180;32805;53.556;9.944;2022-07-25T09:58:25;100426.00;;;29.50
17142;BMP180;32805;53.556;9.944;2022-07-25T10:00:56;100415.00;;;29.70
17142;BMP180;32805;53.556;9.944;2022-07-25T10:03:44;100422.00;;;29.50
17142;BMP180;32805;53.556;9.944;2022-07-25T10:06:20;100418.00;;;29.60
17142;BMP180;32805;53.556;9.944;2022-07-25T10:08:48;100426.00;;;29.70
17142;BMP180;32805;53.556;9.944;2022-07-25T10:11:18;100408.00;;;29.80
17142;BMP180;32805;53.556;9.944;2022-07-25T10:13:48;100410.00;;;29.90
17142;BMP180;32805;53.556;9.944;2022-07-25T10:16:20;100434.00;;;29.90
17142;BMP180;32805;53.556;9.944;2022-07-25T10:18:53;100423.00;;;29.80
17142;BMP180;32805;53.556;9.944;2022-07-25T10:21:23;100420.00;;;29.90
17142;BMP180;32805;53.556;9.944;2022-07-25T10:23:58;100419.00;;;29.90
17142;BMP180;32805;53.556;9.944;2022-07-25T10:26:27;100419.00;;;30.10
17142;BMP180;32805;53.556;9.944;2022-07-25T10:28:56;100414.00;;;30.10
17142;BMP180;32805;53.556;9.944;2022-07-25T10:31:26;100423.00;;;30.00
17142;BMP180;32805;53.556;9.944;2022-07-25T10:34:04;100417.00;;;30.00
17142;BMP180;32805;53.556;9.944;2022-07-25T10:36:42;100415.00;;;30.10
17142;BMP180;32805;53.556;9.944;2022-07-25T10:39:13;100405.00;;;30.20
17142;BMP180;32805;53.556;9.944;2022-07-25T10:41:51;100413.00;;;30.10
17142;BMP180;32805;53.556;9.944;2022-07-25T10:44:19;100412.00;;;30.00
17142;BMP180;32805;53.556;9.944;2022-07-25T10:46:47;100406.00;;;30.00
17142;BMP180;32805;53.556;9.944;2022-07-25T10:49:19;100404.00;;;29.90
17142;BMP180;32805;53.556;9.944;2022-07-25T10:51:58;100401.00;;;30.00
17142;BMP180;32805;53.556;9.944;2022-07-25T10:54:32;100408.00;;;30.10
17142;BMP180;32805;53.556;9.944;2022-07-25T10:57:00;100404.00;;;30.20
17142;BMP180;32805;53.556;9.944;2022-07-25T10:59:31;100393.00;;;30.40
17142;BMP180;32805;53.556;9.944;2022-07-25T11:02:00;100401.00;;;30.20
17142;BMP180;32805;53.556;9.944;2022-07-25T11:04:29;100393.00;;;30.30
17142;BMP180;32805;53.556;9.944;2022-07-25T11:07:06;100391.00;;;30.10
17142;BMP180;32805;53.556;9.944;2022-07-25T11:09:34;100386.00;;;30.20
17142;BMP180;32805;53.556;9.944;2022-07-25T11:12:03;100397.00;;;30.10
17142;BMP180;32805;53.556;9.944;2022-07-25T11:14:33;100397.00;;;30.30
17142;BMP180;32805;53.556;9.944;2022-07-25T11:17:11;100398.00;;;30.30
17142;BMP180;32805;53.556;9.944;2022-07-25T11:19:42;100403.00;;;30.30
17142;BMP180;32805;53.556;9.944;2022-07-25T11:22:10;100396.00;;;30.40
17142;BMP180;32805;53.556;9.944;2022-07-25T11:24:39;100391.00;;;30.50
17142;BMP180;32805;53.556;9.944;2022-07-25T11:27:08;100395.00;;;30.60
17142;BMP180;32805;53.556;9.944;2022-07-25T11:29:39;100387.00;;;30.50
17142;BMP180;32805;53.556;9.944;2022-07-25T11:32:08;100396.00;;;30.60
17142;BMP180;32805;53.556;9.944;2022-07-25T11:34:38;100395.00;;;30.60
17142;BMP180;32805;53.556;9.944;2022-07-25T11:37:11;100375.00;;;30.70
17142;BMP180;32805;53.556;9.944;2022-07-25T11:39:42;100386.00;;;30.60
17142;BMP180;32805;53.556;9.944;2022-07-25T11:42:11;100371.00;;;30.90
17142;BMP180;32805;53.556;9.944;2022-07-25T11:44:43;100375.00;;;31.10
17142;BMP180;32805;53.556;9.944;2022-07-25T11:47:25;100359.00;;;31.10
17142;BMP180;32805;53.556;9.944;2022-07-25T11:49:54;100362.00;;;31.00
17142;BMP180;32805;53.556;9.944;2022-07-25T11:52:25;100356.00;;;30.70
17142;BMP180;32805;53.556;9.944;2022-07-25T11:54:56;100373.00;;;30.60
17142;BMP180;32805;53.556;9.944;2022-07-25T11:57:27;100355.00;;;30.40
17142;BMP180;32805;53.556;9.944;2022-07-25T11:59:59;100364.00;;;30.50
17142;BMP180;32805;53.556;9.944;2022-07-25T12:02:34;100348.00;;;30.60
17142;BMP180;32805;53.556;9.944;2022-07-25T12:05:04;100342.00;;;30.70
17142;BMP180;32805;53.556;9.944;2022-07-25T12:07:39;100337.00;;;30.90
17142;BMP180;32805;53.556;9.944;2022-07-25T12:10:11;100317.00;;;31.10
17142;BMP180;32805;53.556;9.944;2022-07-25T12:12:47;100326.00;;;31.10
17142;BMP180;32805;53.556;9.944;2022-07-25T12:15:18;100332.00;;;31.30
17142;BMP180;32805;53.556;9.944;2022-07-25T12:17:47;100326.00;;;31.30
17142;BMP180;32805;53.556;9.944;2022-07-25T12:20:16;100318.00;;;31.30
17142;BMP180;32805;53.556;9.944;2022-07-25T12:22:47;100332.00;;;31.20
17142;BMP180;32805;53.556;9.944;2022-07-25T12:25:15;100330.00;;;31.20
17142;BMP180;32805;53.556;9.944;2022-07-25T12:27:43;100321.00;;;30.90
17142;BMP180;32805;53.556;9.944;2022-07-25T12:30:12;100336.00;;;30.90
17142;BMP180;32805;53.556;9.944;2022-07-25T12:32:42;100325.00;;;30.80
17142;BMP180;32805;53.556;9.944;2022-07-25T12:35:12;100333.00;;;30.90
17142;BMP180;32805;53.556;9.944;2022-07-25T12:37:40;100335.00;;;30.90
17142;BMP180;32805;53.556;9.944;2022-07-25T12:40:12;100342.00;;;31.00
17142;BMP180;32805;53.556;9.944;2022-07-25T12:42:41;100337.00;;;31.20
17142;BMP180;32805;53.556;9.944;2022-07-25T12:45:09;100359.00;;;31.20
17142;BMP180;32805;53.556;9.944;2022-07-25T12:47:37;100346.00;;;31.00
17142;BMP180;32805;53.556;9.944;2022-07-25T12:50:07;100337.00;;;31.00
17142;BMP180;32805;53.556;9.944;2022-07-25T12:52:35;100350.00;;;30.90
17142;BMP180;32805;53.556;9.944;2022-07-25T12:55:05;100339.00;;;30.70
17142;BMP180;32805;53.556;9.944;2022-07-25T12:57:35;100337.00;;;30.50
17142;BMP180;32805;53.556;9.944;2022-07-25T13:00:06;100340.00;;;30.30
17142;BMP180;32805;53.556;9.944;2022-07-25T13:02:34;100335.00;;;30.40
17142;BMP180;32805;53.556;9.944;2022-07-25T13:05:02;100348.00;;;30.60
17142;BMP180;32805;53.556;9.944;2022-07-25T13:07:31;100342.00;;;30.70
17142;BMP180;32805;53.556;9.944;2022-07-25T13:09:59;100345.00;;;30.70
17142;BMP180;32805;53.556;9.944;2022-07-25T13:12:27;100351.00;;;30.70
17142;BMP180;32805;53.556;9.944;2022-07-25T13:14:56;100343.00;;;30.90
17142;BMP180;32805;53.556;9.944;2022-07-25T13:17:24;100335.00;;;30.90
17142;BMP180;32805;53.556;9.944;2022-07-25T13:19:53;100340.00;;;30.70
17142;BMP180;32805;53.556;9.944;2022-07-25T13:22:22;100353.00;;;30.60
17142;BMP180;32805;53.556;9.944;2022-07-25T13:24:50;100348.00;;;30.70
17142;BMP180;32805;53.556;9.944;2022-07-25T13:27:20;100342.00;;;30.60
17142;BMP180;32805;53.556;9.944;2022-07-25T13:29:48;100339.00;;;30.70
17142;BMP180;32805;53.556;9.944;2022-07-25T13:32:22;100339.00;;;30.50
17142;BMP180;32805;53.556;9.944;2022-07-25T13:34:51;100340.00;;;30.50
17142;BMP180;32805;53.556;9.944;2022-07-25T13:37:19;100335.00;;;30.70
17142;BMP180;32805;53.556;9.944;2022-07-25T13:39:47;100330.00;;;30.70
17142;BMP180;32805;53.556;9.944;2022-07-25T13:42:15;100322.00;;;30.80
17142;BMP180;32805;53.556;9.944;2022-07-25T13:44:43;100322.00;;;30.80
17142;BMP180;32805;53.556;9.944;2022-07-25T13:47:11;100335.00;;;30.90
17142;BMP180;32805;53.556;9.944;2022-07-25T13:49:40;100338.00;;;30.90
17142;BMP180;32805;53.556;9.944;2022-07-25T13:52:08;100336.00;;;31.00
17142;BMP180;32805;53.556;9.944;2022-07-25T13:54:36;100335.00;;;30.70
17142;BMP180;32805;53.556;9.944;2022-07-25T13:57:04;100336.00;;;30.70
17142;BMP180;32805;53.556;9.944;2022-07-25T13:59:31;100333.00;;;30.40
17142;BMP180;32805;53.556;9.944;2022-07-25T14:01:59;100342.00;;;30.20
17142;BMP180;32805;53.556;9.944;2022-07-25T14:04:27;100335.00;;;29.90
17142;BMP180;32805;53.556;9.944;2022-07-25T14:06:59;100326.00;;;29.80